Historyczne dane pomiarowe

Dodano dane terminowe – wersja testowa.

Dane z okresu 1951-2019

Wersja bazy: 1.34 [2019-03-16, lista zmian], aktualizacja planowana na 2019-04-15

Dane meteo z obszaru Polski uzyskane na podstawie danych udostępnionych przez Instytut Meteorologii i Gospodarki Wodnej – Państwowy Instytut Badawczy.

 

Wybierz Datę:    

       

TemperaturaWilgotnośćWiatrCiśnienieOpadyŚniegCzas trwania zjawisk
 Stacja t tx tn tng RH VA  wxwx mslp ppp RRR   cm mm wxwxwxwxwxwxwx
2019-01-31 -9.1 -7.6-10.9- 91.6 2.8 4.6 7.5 7.5 0.0- 816.9 0.0 0.0 0.0216 3.8 1.8--- 13.0---
2019-01-30-10.7 -9.2-11.7- 90.0 2.4 6.4 13.5 18.7 9.5- 815.8 0.3 0.2 0.1216 3.7 0.5--- 23.1---
2019-01-29 -9.3 -7.4-11.0- 92.4 2.8 5.1 11.3 14.3 2.3- 817.6 0.4 0.4 0.0218 3.7 4.5- 1.4- 17.5---
2019-01-28 -6.2 -4.9 -7.5- 95.9 3.7 8.0 8.0 9.6 0.0- 810.9 1.8 0.7 1.1217 3.5 0.0- 5.6- 24.0---
2019-01-27 -5.5 -4.1 -6.0- 96.0 3.9 8.0 9.9 11.3 0.0- 812.1 2.3 1.7 0.6216 3.5 0.0- 8.1- 24.0---
2019-01-26 -7.4 -4.7-14.4- 92.5 3.3 7.8 20.0 24.0 23.5- 818.7 7.6 4.0 3.6213 3.5 0.0- 15.5- 20.5---
2019-01-25-12.8-10.2-13.6- 89.9 2.1 7.5 10.6 14.3 3.2- 823.4 0.6 0.2 0.4214 3.5 0.0- 6.8- 23.3---
2019-01-24-10.0 -8.9-14.9- 75.4 2.2 3.3 7.5 5.3 0.0- 821.2 0.1 0.0 0.1216 3.5 3.1- 4.0- 5.2---
2019-01-23-11.9-10.3-14.4- 59.4 1.5 2.4 10.0 12.2 3.0- 817.5 0.0 0.0 0.0218 3.5 8.0-------
2019-01-22-10.5 -7.3-12.8- 54.3 1.5 1.3 4.5 0.0 0.0- 825.4 0.0 0.0 0.0219 3.5 8.2-------
2019-01-21-10.8 -9.1-12.8- 73.1 2.0 0.5 6.8 0.0 0.0- 832.4 0.0 0.0 0.0220 3.5 8.4-------
2019-01-20-11.0 -6.5-13.3- 85.4 2.3 2.0 5.1 2.5 0.0- 829.6 0.0 0.0 0.0222 3.4 7.9--- 2.7---
2019-01-19-10.7 -8.8-13.6- 87.8 2.4 4.8 7.1 7.3 0.0- 831.6 0.0 0.0 0.0223 3.4 6.1--- 14.2---
2019-01-18-11.2 -4.2-13.7- 88.0 2.4 5.9 14.9 24.0 10.8- 826.0 5.6 5.6 0.0220 3.5 0.0- 6.2- 15.8---
2019-01-17 -4.5 -0.5 -6.2- 89.4 3.9 7.8 18.5 21.1 17.4- 818.4 16.6 8.4 8.2210 3.5 0.0- 5.7- 20.5---
2019-01-16 -3.8 -2.6 -5.5- 94.3 4.4 7.6 19.3 22.2 17.5- 824.0 0.2 0.2 0.0210 3.4 0.0- 2.2- 20.2---
2019-01-15 -8.3 -5.5-12.8- 92.1 3.1 8.0 29.9 24.0 24.0- 820.2 11.2 5.2 6.0207 3.3 0.1- 15.7- 24.0---
2019-01-14 -9.1 -3.4-12.3- 91.4 2.9 7.8 31.4 24.0 24.0- 810.3 9.2 5.7 3.5205 3.3 2.3- 3.9- 24.0---
2019-01-13 -4.7 -4.0 -6.3- 95.3 4.1 7.9 21.4 24.0 24.0- 814.5 18.7 4.8 13.9198 3.4 0.0- 8.7- 24.0---
2019-01-12 -6.0 -4.7 -6.9- 94.0 3.7 7.9 21.1 24.0 24.0- 824.3 11.0 4.3 6.7197 3.4 0.0- 0.7- 24.0---
2019-01-11 -9.1 -4.8-13.2- 92.1 2.9 7.5 15.9 20.3 11.3- 829.0 12.8 0.8 12.0194 3.4 1.9- 6.4- 18.5---
2019-01-10 -9.4 -7.2-10.5- 93.1 2.8 8.0 16.1 24.0 17.3- 827.8 15.0 13.2 1.8184 3.4 0.0- 17.0- 24.0---
2019-01-09 -8.2 -5.3 -8.7- 94.1 3.1 8.0 18.1 24.0 8.9- 816.6 19.8 7.0 12.8171 3.6 0.0- 13.3- 24.0---
2019-01-08 -5.9 -4.5 -6.7- 95.5 3.8 7.9 20.1 24.0 24.0- 820.2 22.4 9.0 13.4152 3.6 0.2- 16.7- 24.0---
2019-01-07 -8.1 -5.0-10.8- 93.3 3.2 8.0 11.4 18.8 2.3- 837.1 6.4 0.4 6.0147 3.6 0.0--- 24.0---
2019-01-06 -9.7 -5.5-10.9- 91.9 2.7 8.0 19.5 24.0 24.0- 833.8 2.3 1.5 0.8147 3.6 0.0- 1.6- 24.0---
2019-01-05 -5.0 -1.2 -7.3- 96.0 4.1 8.0 20.9 24.0 24.0- 829.2 9.3 7.1 2.2142 3.7 0.0- 16.2- 24.0---
2019-01-04 -9.8 -7.0-13.1- 91.6 2.7 8.0 18.1 24.0 20.3- 835.7 13.7 5.5 8.2132 3.8 0.0- 13.7- 24.0---
2019-01-03-12.3-11.3-13.3- 89.6 2.1 8.0 23.5 24.0 24.0- 834.8 11.0 10.3 0.7125 3.9 0.0- 12.6- 24.0---
2019-01-02 -9.8 -5.4-11.3- 91.9 2.7 8.0 29.8 24.0 24.0- 827.2 34.5 22.1 12.4106 3.6 0.0- 17.8- 24.0---
2019-01-01 -3.6 -1.0 -6.4- 98.3 4.7 7.9 25.3 24.0 22.8- 830.5 12.7 6.4 6.3 98 3.5 0.0- 9.7- 24.0---
2018-12-31 -6.1 -5.1 -7.1- 94.9 3.7 7.1 14.4 20.7 5.2- 840.4 0.8 0.0 0.0 98 3.5 5.7- 1.7- 19.0---
2018-12-30 -4.5 -2.5 -5.6- 97.6 4.3 7.9 22.0 24.0 21.5- 833.4 12.9 9.8 3.1 90 3.3 0.0- 20.3- 24.0---
2018-12-29 -4.2 -3.1 -5.6- 97.5 4.4 7.9 14.1 24.0 11.5- 838.9 3.7 0.3 3.4 88 3.4 0.0- 5.5- 24.0---
2018-12-28 -2.5 1.7 -4.7- 98.5 5.1 7.9 16.6 24.0 17.8- 837.0 3.3 2.1 1.2 86 3.4 0.0- 8.4- 23.2---
2018-12-27 -0.3 0.3 -4.2- 99.8 6.0 7.6 17.3 24.0 16.2- 838.7 1.7 0.5 1.2 92 3.2 2.2 2.1-- 24.0---
2018-12-26 -5.5 -3.8 -6.6- 95.8 3.9 8.0 18.5 24.0 23.2- 837.9 1.6 0.6 1.0 92 3.1 0.0- 1.5- 24.0---
2018-12-25 -7.2 -5.7-11.2- 94.3 3.4 8.0 20.4 24.0 24.0- 836.7 17.8 7.9 9.9 81 3.2 0.0- 16.3- 24.0---
2018-12-24 -7.6 -3.6-10.9- 94.0 3.3 8.0 17.6 21.8 18.0- 830.6 17.4 10.9 6.5 73 3.2 0.0- 16.2- 24.0---
2018-12-23 -3.5 -2.8 -4.0- 98.3 4.7 7.9 17.4 24.0 16.4- 830.7 13.2 6.0 7.2 66 3.1 0.0- 19.3- 24.0---
2018-12-22 -1.9 -0.4 -3.7- 99.8 5.3 8.0 22.1 24.0 24.0- 823.4 18.4 11.4 7.0 57 3.2 0.0- 15.9- 24.0---
2018-12-21 -3.9 -3.7 -4.9- 97.0 4.5 8.0 13.9 23.9 9.9- 826.9 29.2 19.2 10.0 39 3.3 0.0- 18.8- 24.0---
2018-12-20 -3.6 0.0 -7.3- 90.5 4.2 7.6 10.1 11.3 3.0- 831.5 8.1 0.4 7.7 33 3.5 0.0- 9.3- 18.2---
2018-12-19 -4.8 0.2 -7.7- 83.0 3.5 6.4 13.9 13.5 10.3- 834.4 0.0 0.0 0.0 35 3.3 0.0 0.5 4.1- 11.7---
2018-12-18 -5.1 -3.5 -5.9- 95.4 4.0 6.5 8.1 10.3 0.0- 839.6 0.0 0.0 0.0 35 3.3 0.4--- 20.3---
2018-12-17 -6.6 -5.7-12.4- 94.1 3.5 7.4 13.4 24.0 5.3- 833.0 0.1 0.0 0.1 35 3.3 0.3--- 23.2---
2018-12-16-11.0 -8.1-12.6- 87.9 2.4 5.6 8.5 7.8 2.5- 828.7 0.1 0.0 0.1 35 3.3 6.5--- 11.0---
2018-12-15-11.2-10.2-11.7- 92.1 2.4 8.0 6.3 4.0 0.0- 834.9 0.8 0.5 0.3 35 3.3 0.0- 6.8- 24.0---
2018-12-14-10.5 -9.3-11.1- 92.6 2.6 7.8 7.6 4.8 0.0- 834.5 0.2 0.1 0.1 35 3.3 1.0--- 24.0---
2018-12-13 -9.9 -8.5-11.1- 93.5 2.7 7.9 5.1 0.0 0.0- 833.7 0.2 0.1 0.1 36 3.2 0.5--- 24.0---
2018-12-12 -8.8 -7.4 -9.8- 94.4 3.0 8.0 6.4 4.0 0.0- 832.3 8.7 8.5 0.2 31 3.3 0.0- 13.1- 24.0---
2018-12-11 -7.3 -6.7 -7.9- 95.4 3.4 8.0 16.3 20.5 14.0- 825.0 13.1 10.4 2.7 26 3.6 0.0- 15.8- 24.0---
2018-12-10 -6.8 -3.6 -8.0- 95.8 3.5 8.0 21.4 24.0 23.0- 821.9 23.7 11.7 12.0 15 4.2 0.0- 10.5- 24.0---
2018-12-09 -3.1 -2.0 -4.0- 98.5 4.8 8.0 16.9 24.0 16.2- 814.8 18.1 11.8 6.3 7 4.1 0.0- 17.8- 24.0---
2018-12-08 -3.4 1.5 -5.3- 98.9 4.8 7.9 15.5 23.2 12.3- 821.1 10.0 1.7 8.3- 0.0 0.0 1.2 10.7- 24.0---
2018-12-07 1.1 3.2 -0.4- 99.9 6.6 8.0 16.8 24.0 13.2- 827.4 4.9 1.1 3.8- 0.0 0.0 7.3-- 24.0---
2018-12-06 -3.4 1.9 -8.8- 89.4 4.5 7.3 17.9 23.2 18.7- 834.2 0.1 0.0 0.1 2 0.0 0.0- 0.3- 14.7---
2018-12-05 -6.9 -4.3 -7.8- 86.3 3.2 4.5 10.1 12.7 6.0- 839.8 0.0 0.0 0.0 2 0.0 4.7--- 11.2---
2018-12-04 -3.0 1.9 -6.4- 97.9 4.9 7.5 18.8 24.0 22.3- 828.1 2.9 2.6 0.3- 0.0 0.0 3.7 1.8- 24.0---
2018-12-03 1.6 2.9 -2.6-100.0 6.9 8.0 15.9 22.8 6.2- 823.3 15.7 13.2 2.5 6 4.7 0.0 14.6-- 24.0---
370.7 ms

 

Źródłem pochodzenia danych jest Instytut Meteorologii i Gospodarki Wodnej – Państwowy Instytut Badawczy. Dane Instytutu Meteorologii i Gospodarki Wodnej – Państwowego Instytutu Badawczego zostały przetworzone.

Dane źródłowe można odnaleźć na stronie https://dane.imgw.pl